sensor_id;sensor_type;location;lat;lon;timestamp;P1;durP1;ratioP1;P2;durP2;ratioP2
11008;SDS011;5557;51.670;7.788;2023-02-01T00:01:05;24.20;;;7.47;;
11008;SDS011;5557;51.670;7.788;2023-02-01T00:03:33;18.70;;;6.80;;
11008;SDS011;5557;51.670;7.788;2023-02-01T00:06:00;19.10;;;8.23;;
11008;SDS011;5557;51.670;7.788;2023-02-01T00:08:28;25.37;;;8.50;;
11008;SDS011;5557;51.670;7.788;2023-02-01T00:10:59;20.53;;;9.07;;
11008;SDS011;5557;51.670;7.788;2023-02-01T00:13:31;21.00;;;8.70;;
11008;SDS011;5557;51.670;7.788;2023-02-01T00:16:06;22.57;;;9.80;;
11008;SDS011;5557;51.670;7.788;2023-02-01T00:18:45;27.80;;;8.90;;
11008;SDS011;5557;51.670;7.788;2023-02-01T00:21:13;28.20;;;9.87;;
11008;SDS011;5557;51.670;7.788;2023-02-01T00:23:41;24.80;;;10.67;;
11008;SDS011;5557;51.670;7.788;2023-02-01T00:26:19;16.43;;;9.43;;
11008;SDS011;5557;51.670;7.788;2023-02-01T00:28:52;26.30;;;11.00;;
11008;SDS011;5557;51.670;7.788;2023-02-01T00:31:19;21.00;;;10.73;;
11008;SDS011;5557;51.670;7.788;2023-02-01T00:33:47;31.13;;;13.00;;
11008;SDS011;5557;51.670;7.788;2023-02-01T00:36:15;25.83;;;11.60;;
11008;SDS011;5557;51.670;7.788;2023-02-01T00:38:42;32.30;;;12.40;;
11008;SDS011;5557;51.670;7.788;2023-02-01T00:41:13;23.33;;;12.00;;
11008;SDS011;5557;51.670;7.788;2023-02-01T00:43:42;41.40;;;14.77;;
11008;SDS011;5557;51.670;7.788;2023-02-01T00:46:09;25.53;;;12.73;;
11008;SDS011;5557;51.670;7.788;2023-02-01T00:48:37;28.97;;;12.60;;
11008;SDS011;5557;51.670;7.788;2023-02-01T00:51:06;24.70;;;11.73;;
11008;SDS011;5557;51.670;7.788;2023-02-01T00:53:34;30.30;;;14.07;;
11008;SDS011;5557;51.670;7.788;2023-02-01T00:56:02;23.17;;;12.43;;
11008;SDS011;5557;51.670;7.788;2023-02-01T00:58:29;21.80;;;12.00;;
11008;SDS011;5557;51.670;7.788;2023-02-01T01:01:00;29.73;;;12.07;;
11008;SDS011;5557;51.670;7.788;2023-02-01T01:03:35;28.30;;;12.03;;
11008;SDS011;5557;51.670;7.788;2023-02-01T01:06:06;31.90;;;11.80;;
11008;SDS011;5557;51.670;7.788;2023-02-01T01:08:37;22.97;;;11.20;;
11008;SDS011;5557;51.670;7.788;2023-02-01T01:11:10;17.53;;;10.43;;
11008;SDS011;5557;51.670;7.788;2023-02-01T01:13:42;26.37;;;10.87;;
11008;SDS011;5557;51.670;7.788;2023-02-01T01:16:10;20.13;;;9.47;;
11008;SDS011;5557;51.670;7.788;2023-02-01T01:18:37;28.07;;;9.70;;
11008;SDS011;5557;51.670;7.788;2023-02-01T01:21:04;29.47;;;9.40;;
11008;SDS011;5557;51.670;7.788;2023-02-01T01:23:32;20.23;;;7.83;;
11008;SDS011;5557;51.670;7.788;2023-02-01T01:25:59;26.03;;;9.33;;
11008;SDS011;5557;51.670;7.788;2023-02-01T01:28:27;22.43;;;8.10;;
11008;SDS011;5557;51.670;7.788;2023-02-01T01:30:54;16.20;;;7.40;;
11008;SDS011;5557;51.670;7.788;2023-02-01T01:33:21;30.93;;;8.30;;
11008;SDS011;5557;51.670;7.788;2023-02-01T01:35:48;23.63;;;6.53;;
11008;SDS011;5557;51.670;7.788;2023-02-01T01:38:15;14.67;;;6.67;;
11008;SDS011;5557;51.670;7.788;2023-02-01T01:40:48;11.80;;;6.53;;
11008;SDS011;5557;51.670;7.788;2023-02-01T01:43:18;18.50;;;6.10;;
11008;SDS011;5557;51.670;7.788;2023-02-01T01:45:49;15.17;;;5.67;;
11008;SDS011;5557;51.670;7.788;2023-02-01T01:48:18;18.87;;;5.93;;
11008;SDS011;5557;51.670;7.788;2023-02-01T01:51:26;14.13;;;5.57;;
11008;SDS011;5557;51.670;7.788;2023-02-01T01:53:48;21.03;;;5.80;;
11008;SDS011;5557;51.670;7.788;2023-02-01T01:56:23;15.30;;;5.60;;
11008;SDS011;5557;51.670;7.788;2023-02-01T01:58:53;12.13;;;4.83;;
11008;SDS011;5557;51.670;7.788;2023-02-01T02:01:21;9.93;;;4.17;;
11008;SDS011;5557;51.670;7.788;2023-02-01T02:03:48;15.67;;;4.70;;
11008;SDS011;5557;51.670;7.788;2023-02-01T02:09:06;23.23;;;5.03;;
11008;SDS011;5557;51.670;7.788;2023-02-01T02:11:33;19.27;;;5.07;;
11008;SDS011;5557;51.670;7.788;2023-02-01T02:14:00;25.43;;;4.50;;
11008;SDS011;5557;51.670;7.788;2023-02-01T02:16:45;15.73;;;4.27;;
11008;SDS011;5557;51.670;7.788;2023-02-01T02:22:56;25.13;;;4.57;;
11008;SDS011;5557;51.670;7.788;2023-02-01T02:25:55;17.93;;;4.80;;
11008;SDS011;5557;51.670;7.788;2023-02-01T02:29:00;13.70;;;3.63;;
11008;SDS011;5557;51.670;7.788;2023-02-01T02:34:37;16.87;;;3.77;;
11008;SDS011;5557;51.670;7.788;2023-02-01T02:44:11;22.23;;;3.17;;
11008;SDS011;5557;51.670;7.788;2023-02-01T02:46:44;14.83;;;4.37;;
11008;SDS011;5557;51.670;7.788;2023-02-01T02:49:36;12.40;;;3.93;;
11008;SDS011;5557;51.670;7.788;2023-02-01T02:52:15;12.23;;;3.70;;
11008;SDS011;5557;51.670;7.788;2023-02-01T02:55:03;18.60;;;3.47;;
11008;SDS011;5557;51.670;7.788;2023-02-01T02:57:36;18.07;;;5.47;;
11008;SDS011;5557;51.670;7.788;2023-02-01T03:00:27;19.83;;;3.90;;
11008;SDS011;5557;51.670;7.788;2023-02-01T03:03:16;20.50;;;3.50;;
11008;SDS011;5557;51.670;7.788;2023-02-01T03:06:01;15.93;;;3.60;;
11008;SDS011;5557;51.670;7.788;2023-02-01T03:08:29;12.83;;;4.50;;
11008;SDS011;5557;51.670;7.788;2023-02-01T03:11:15;14.00;;;4.57;;
11008;SDS011;5557;51.670;7.788;2023-02-01T03:13:52;17.00;;;3.67;;
11008;SDS011;5557;51.670;7.788;2023-02-01T03:16:26;11.00;;;3.80;;
11008;SDS011;5557;51.670;7.788;2023-02-01T03:19:00;17.00;;;3.53;;
11008;SDS011;5557;51.670;7.788;2023-02-01T03:21:52;26.07;;;4.23;;
11008;SDS011;5557;51.670;7.788;2023-02-01T03:24:25;13.03;;;4.00;;
11008;SDS011;5557;51.670;7.788;2023-02-01T03:27:27;12.83;;;4.10;;
11008;SDS011;5557;51.670;7.788;2023-02-01T03:30:25;9.43;;;4.40;;
11008;SDS011;5557;51.670;7.788;2023-02-01T03:32:56;16.80;;;4.20;;
11008;SDS011;5557;51.670;7.788;2023-02-01T03:39:14;17.73;;;4.47;;
11008;SDS011;5557;51.670;7.788;2023-02-01T03:47:36;18.23;;;3.90;;
11008;SDS011;5557;51.670;7.788;2023-02-01T03:50:11;11.10;;;3.60;;
11008;SDS011;5557;51.670;7.788;2023-02-01T03:52:45;20.20;;;3.97;;
11008;SDS011;5557;51.670;7.788;2023-02-01T03:55:41;15.90;;;3.40;;
11008;SDS011;5557;51.670;7.788;2023-02-01T03:58:19;17.00;;;3.87;;
11008;SDS011;5557;51.670;7.788;2023-02-01T04:00:54;12.33;;;3.87;;
11008;SDS011;5557;51.670;7.788;2023-02-01T04:03:26;8.30;;;3.67;;
11008;SDS011;5557;51.670;7.788;2023-02-01T04:05:54;15.53;;;2.80;;
11008;SDS011;5557;51.670;7.788;2023-02-01T04:08:21;10.33;;;3.40;;
11008;SDS011;5557;51.670;7.788;2023-02-01T04:10:49;5.63;;;2.40;;
11008;SDS011;5557;51.670;7.788;2023-02-01T04:13:16;13.50;;;3.40;;
11008;SDS011;5557;51.670;7.788;2023-02-01T04:15:43;28.73;;;4.73;;
11008;SDS011;5557;51.670;7.788;2023-02-01T04:18:11;9.40;;;2.90;;
11008;SDS011;5557;51.670;7.788;2023-02-01T04:20:38;22.37;;;3.83;;
11008;SDS011;5557;51.670;7.788;2023-02-01T04:23:05;14.00;;;3.40;;
11008;SDS011;5557;51.670;7.788;2023-02-01T04:25:32;17.13;;;3.50;;
11008;SDS011;5557;51.670;7.788;2023-02-01T04:27:59;12.23;;;3.40;;
11008;SDS011;5557;51.670;7.788;2023-02-01T04:30:26;10.07;;;4.10;;
11008;SDS011;5557;51.670;7.788;2023-02-01T04:32:53;13.80;;;3.40;;
11008;SDS011;5557;51.670;7.788;2023-02-01T04:35:20;15.97;;;3.23;;
11008;SDS011;5557;51.670;7.788;2023-02-01T04:37:48;13.17;;;3.43;;
11008;SDS011;5557;51.670;7.788;2023-02-01T04:40:15;32.00;;;3.63;;
11008;SDS011;5557;51.670;7.788;2023-02-01T04:42:42;15.03;;;3.20;;
11008;SDS011;5557;51.670;7.788;2023-02-01T04:45:09;20.37;;;4.30;;
11008;SDS011;5557;51.670;7.788;2023-02-01T04:47:36;9.47;;;3.43;;
11008;SDS011;5557;51.670;7.788;2023-02-01T04:50:03;29.97;;;5.00;;
11008;SDS011;5557;51.670;7.788;2023-02-01T04:52:32;10.83;;;3.50;;
11008;SDS011;5557;51.670;7.788;2023-02-01T04:54:59;17.40;;;4.07;;
11008;SDS011;5557;51.670;7.788;2023-02-01T04:57:27;19.60;;;3.77;;
11008;SDS011;5557;51.670;7.788;2023-02-01T04:59:53;17.80;;;3.70;;
11008;SDS011;5557;51.670;7.788;2023-02-01T05:02:20;9.93;;;2.93;;
11008;SDS011;5557;51.670;7.788;2023-02-01T05:04:47;10.17;;;3.93;;
11008;SDS011;5557;51.670;7.788;2023-02-01T05:07:14;11.27;;;3.13;;
11008;SDS011;5557;51.670;7.788;2023-02-01T05:09:41;21.53;;;4.33;;
11008;SDS011;5557;51.670;7.788;2023-02-01T05:12:09;16.50;;;2.90;;
11008;SDS011;5557;51.670;7.788;2023-02-01T05:14:55;23.23;;;4.80;;
11008;SDS011;5557;51.670;7.788;2023-02-01T05:17:22;15.87;;;3.20;;
11008;SDS011;5557;51.670;7.788;2023-02-01T05:19:49;13.07;;;4.00;;
11008;SDS011;5557;51.670;7.788;2023-02-01T05:22:16;19.00;;;3.37;;
11008;SDS011;5557;51.670;7.788;2023-02-01T05:24:43;17.77;;;3.83;;
11008;SDS011;5557;51.670;7.788;2023-02-01T05:27:10;14.83;;;3.13;;
11008;SDS011;5557;51.670;7.788;2023-02-01T05:29:37;23.07;;;4.90;;
11008;SDS011;5557;51.670;7.788;2023-02-01T05:32:04;16.83;;;3.40;;
11008;SDS011;5557;51.670;7.788;2023-02-01T05:34:47;17.13;;;3.67;;
11008;SDS011;5557;51.670;7.788;2023-02-01T05:37:14;17.43;;;3.37;;
11008;SDS011;5557;51.670;7.788;2023-02-01T05:39:41;18.23;;;3.37;;
11008;SDS011;5557;51.670;7.788;2023-02-01T05:42:08;9.13;;;2.40;;
11008;SDS011;5557;51.670;7.788;2023-02-01T05:44:36;15.10;;;2.93;;
11008;SDS011;5557;51.670;7.788;2023-02-01T05:47:02;13.90;;;3.43;;
11008;SDS011;5557;51.670;7.788;2023-02-01T05:49:30;12.43;;;3.00;;
11008;SDS011;5557;51.670;7.788;2023-02-01T05:51:57;22.07;;;3.40;;
11008;SDS011;5557;51.670;7.788;2023-02-01T05:54:25;7.33;;;3.37;;
11008;SDS011;5557;51.670;7.788;2023-02-01T05:56:52;19.03;;;3.70;;
11008;SDS011;5557;51.670;7.788;2023-02-01T05:59:19;9.33;;;3.23;;
11008;SDS011;5557;51.670;7.788;2023-02-01T06:01:46;14.30;;;3.77;;
11008;SDS011;5557;51.670;7.788;2023-02-01T06:04:13;11.00;;;2.90;;
11008;SDS011;5557;51.670;7.788;2023-02-01T06:06:40;11.07;;;3.40;;
11008;SDS011;5557;51.670;7.788;2023-02-01T06:09:07;10.30;;;3.20;;
11008;SDS011;5557;51.670;7.788;2023-02-01T06:11:34;14.70;;;3.63;;
11008;SDS011;5557;51.670;7.788;2023-02-01T06:14:01;6.83;;;3.67;;
11008;SDS011;5557;51.670;7.788;2023-02-01T06:16:28;20.47;;;3.53;;
11008;SDS011;5557;51.670;7.788;2023-02-01T06:18:55;8.20;;;3.03;;
11008;SDS011;5557;51.670;7.788;2023-02-01T06:21:22;7.10;;;2.70;;
11008;SDS011;5557;51.670;7.788;2023-02-01T06:23:50;15.30;;;3.00;;
11008;SDS011;5557;51.670;7.788;2023-02-01T06:26:18;29.97;;;3.83;;
11008;SDS011;5557;51.670;7.788;2023-02-01T06:28:45;25.53;;;3.83;;
11008;SDS011;5557;51.670;7.788;2023-02-01T06:31:12;14.23;;;3.93;;
11008;SDS011;5557;51.670;7.788;2023-02-01T06:33:39;17.20;;;4.03;;
11008;SDS011;5557;51.670;7.788;2023-02-01T06:36:07;10.77;;;3.80;;
11008;SDS011;5557;51.670;7.788;2023-02-01T06:38:36;14.10;;;3.67;;
11008;SDS011;5557;51.670;7.788;2023-02-01T06:41:03;6.40;;;2.57;;
11008;SDS011;5557;51.670;7.788;2023-02-01T06:43:30;15.93;;;4.60;;
11008;SDS011;5557;51.670;7.788;2023-02-01T06:45:59;18.77;;;3.43;;
11008;SDS011;5557;51.670;7.788;2023-02-01T06:48:27;19.10;;;3.90;;
11008;SDS011;5557;51.670;7.788;2023-02-01T06:50:54;13.93;;;4.20;;
11008;SDS011;5557;51.670;7.788;2023-02-01T06:53:21;12.60;;;3.90;;
11008;SDS011;5557;51.670;7.788;2023-02-01T06:55:52;12.13;;;3.40;;
11008;SDS011;5557;51.670;7.788;2023-02-01T06:58:32;14.40;;;4.10;;
11008;SDS011;5557;51.670;7.788;2023-02-01T07:01:07;12.43;;;3.80;;
11008;SDS011;5557;51.670;7.788;2023-02-01T07:03:35;17.23;;;4.17;;
11008;SDS011;5557;51.670;7.788;2023-02-01T07:06:03;13.33;;;3.00;;
11008;SDS011;5557;51.670;7.788;2023-02-01T07:08:31;15.43;;;4.00;;
11008;SDS011;5557;51.670;7.788;2023-02-01T07:11:03;20.63;;;4.10;;
11008;SDS011;5557;51.670;7.788;2023-02-01T07:13:34;17.77;;;3.87;;
11008;SDS011;5557;51.670;7.788;2023-02-01T07:16:02;11.03;;;3.27;;
11008;SDS011;5557;51.670;7.788;2023-02-01T07:18:31;15.17;;;4.27;;
11008;SDS011;5557;51.670;7.788;2023-02-01T07:20:59;11.27;;;3.43;;
11008;SDS011;5557;51.670;7.788;2023-02-01T07:23:26;14.93;;;4.57;;
11008;SDS011;5557;51.670;7.788;2023-02-01T07:25:57;19.60;;;3.53;;
11008;SDS011;5557;51.670;7.788;2023-02-01T07:28:25;15.13;;;4.20;;
11008;SDS011;5557;51.670;7.788;2023-02-01T07:30:54;16.13;;;4.03;;
11008;SDS011;5557;51.670;7.788;2023-02-01T07:33:22;5.63;;;2.97;;
11008;SDS011;5557;51.670;7.788;2023-02-01T07:35:53;11.13;;;3.13;;
11008;SDS011;5557;51.670;7.788;2023-02-01T07:38:20;16.07;;;3.30;;
11008;SDS011;5557;51.670;7.788;2023-02-01T07:40:49;14.40;;;3.70;;
11008;SDS011;5557;51.670;7.788;2023-02-01T07:43:16;13.17;;;3.83;;
11008;SDS011;5557;51.670;7.788;2023-02-01T07:45:43;9.73;;;3.03;;
11008;SDS011;5557;51.670;7.788;2023-02-01T07:48:16;16.20;;;3.13;;
11008;SDS011;5557;51.670;7.788;2023-02-01T07:50:43;11.03;;;3.23;;
11008;SDS011;5557;51.670;7.788;2023-02-01T07:53:10;17.80;;;4.03;;
11008;SDS011;5557;51.670;7.788;2023-02-01T07:55:37;14.00;;;4.40;;
11008;SDS011;5557;51.670;7.788;2023-02-01T07:58:05;17.57;;;3.43;;
11008;SDS011;5557;51.670;7.788;2023-02-01T08:00:32;24.23;;;4.67;;
11008;SDS011;5557;51.670;7.788;2023-02-01T08:03:18;16.00;;;4.00;;
11008;SDS011;5557;51.670;7.788;2023-02-01T08:05:44;23.20;;;4.27;;
11008;SDS011;5557;51.670;7.788;2023-02-01T08:08:11;18.57;;;3.67;;
11008;SDS011;5557;51.670;7.788;2023-02-01T08:10:39;21.33;;;3.80;;
11008;SDS011;5557;51.670;7.788;2023-02-01T08:13:06;19.47;;;3.73;;
11008;SDS011;5557;51.670;7.788;2023-02-01T08:15:33;10.00;;;3.33;;
11008;SDS011;5557;51.670;7.788;2023-02-01T08:18:00;27.63;;;5.67;;
11008;SDS011;5557;51.670;7.788;2023-02-01T08:20:28;11.60;;;3.90;;
11008;SDS011;5557;51.670;7.788;2023-02-01T08:22:55;13.00;;;4.47;;
11008;SDS011;5557;51.670;7.788;2023-02-01T08:25:23;28.63;;;5.00;;
11008;SDS011;5557;51.670;7.788;2023-02-01T08:27:50;19.97;;;4.30;;
11008;SDS011;5557;51.670;7.788;2023-02-01T08:30:17;17.67;;;4.57;;
11008;SDS011;5557;51.670;7.788;2023-02-01T08:32:44;22.30;;;4.67;;
11008;SDS011;5557;51.670;7.788;2023-02-01T08:35:12;15.20;;;4.90;;
11008;SDS011;5557;51.670;7.788;2023-02-01T08:37:39;18.47;;;4.57;;
11008;SDS011;5557;51.670;7.788;2023-02-01T08:40:06;16.70;;;5.03;;
11008;SDS011;5557;51.670;7.788;2023-02-01T08:42:34;16.50;;;5.13;;
11008;SDS011;5557;51.670;7.788;2023-02-01T08:45:29;12.90;;;4.90;;
11008;SDS011;5557;51.670;7.788;2023-02-01T08:47:56;15.63;;;5.77;;
11008;SDS011;5557;51.670;7.788;2023-02-01T08:50:23;22.90;;;6.57;;
11008;SDS011;5557;51.670;7.788;2023-02-01T08:52:52;18.53;;;5.60;;
11008;SDS011;5557;51.670;7.788;2023-02-01T08:55:19;13.73;;;5.07;;
11008;SDS011;5557;51.670;7.788;2023-02-01T08:57:47;13.50;;;5.53;;
11008;SDS011;5557;51.670;7.788;2023-02-01T09:00:15;14.93;;;5.30;;
11008;SDS011;5557;51.670;7.788;2023-02-01T09:02:43;18.50;;;6.00;;
11008;SDS011;5557;51.670;7.788;2023-02-01T09:05:11;23.20;;;5.23;;
11008;SDS011;5557;51.670;7.788;2023-02-01T09:07:38;19.43;;;5.40;;
11008;SDS011;5557;51.670;7.788;2023-02-01T09:10:05;20.53;;;5.37;;
11008;SDS011;5557;51.670;7.788;2023-02-01T09:12:33;15.87;;;5.80;;
11008;SDS011;5557;51.670;7.788;2023-02-01T09:15:00;17.97;;;4.37;;
11008;SDS011;5557;51.670;7.788;2023-02-01T09:17:28;19.43;;;5.27;;
11008;SDS011;5557;51.670;7.788;2023-02-01T09:19:56;21.37;;;5.40;;
11008;SDS011;5557;51.670;7.788;2023-02-01T09:22:23;13.20;;;4.17;;
11008;SDS011;5557;51.670;7.788;2023-02-01T09:24:51;11.43;;;4.90;;
11008;SDS011;5557;51.670;7.788;2023-02-01T09:27:20;11.73;;;5.27;;
11008;SDS011;5557;51.670;7.788;2023-02-01T09:29:47;13.43;;;5.13;;
11008;SDS011;5557;51.670;7.788;2023-02-01T09:32:21;20.37;;;4.97;;
11008;SDS011;5557;51.670;7.788;2023-02-01T09:34:51;15.47;;;4.40;;
11008;SDS011;5557;51.670;7.788;2023-02-01T09:37:18;19.30;;;5.23;;
11008;SDS011;5557;51.670;7.788;2023-02-01T09:39:45;17.93;;;5.10;;
11008;SDS011;5557;51.670;7.788;2023-02-01T09:48:25;11.87;;;5.40;;
11008;SDS011;5557;51.670;7.788;2023-02-01T09:50:57;19.63;;;5.13;;
11008;SDS011;5557;51.670;7.788;2023-02-01T09:53:35;17.93;;;5.03;;
11008;SDS011;5557;51.670;7.788;2023-02-01T09:56:09;14.67;;;5.30;;
11008;SDS011;5557;51.670;7.788;2023-02-01T09:58:47;22.73;;;5.43;;
11008;SDS011;5557;51.670;7.788;2023-02-01T10:01:27;18.47;;;5.27;;
11008;SDS011;5557;51.670;7.788;2023-02-01T10:03:59;13.70;;;4.73;;
11008;SDS011;5557;51.670;7.788;2023-02-01T10:08:26;19.20;;;5.50;;
11008;SDS011;5557;51.670;7.788;2023-02-01T10:09:58;25.77;;;5.17;;
11008;SDS011;5557;51.670;7.788;2023-02-01T10:13:09;16.07;;;4.97;;
11008;SDS011;5557;51.670;7.788;2023-02-01T10:16:11;12.53;;;5.93;;
11008;SDS011;5557;51.670;7.788;2023-02-01T10:22:53;21.10;;;5.13;;
11008;SDS011;5557;51.670;7.788;2023-02-01T10:28:30;11.77;;;5.03;;
11008;SDS011;5557;51.670;7.788;2023-02-01T10:31:03;22.73;;;6.00;;
11008;SDS011;5557;51.670;7.788;2023-02-01T10:33:35;12.13;;;5.90;;
11008;SDS011;5557;51.670;7.788;2023-02-01T10:36:15;11.50;;;6.00;;
11008;SDS011;5557;51.670;7.788;2023-02-01T10:39:03;15.23;;;5.40;;
11008;SDS011;5557;51.670;7.788;2023-02-01T10:41:33;22.63;;;5.77;;
11008;SDS011;5557;51.670;7.788;2023-02-01T10:44:03;16.80;;;5.30;;
11008;SDS011;5557;51.670;7.788;2023-02-01T10:46:33;24.50;;;5.10;;
11008;SDS011;5557;51.670;7.788;2023-02-01T10:49:00;18.47;;;5.87;;
11008;SDS011;5557;51.670;7.788;2023-02-01T10:51:36;26.93;;;7.20;;
11008;SDS011;5557;51.670;7.788;2023-02-01T10:54:18;21.67;;;7.07;;
11008;SDS011;5557;51.670;7.788;2023-02-01T10:56:47;23.80;;;7.70;;
11008;SDS011;5557;51.670;7.788;2023-02-01T10:59:19;14.83;;;5.80;;
11008;SDS011;5557;51.670;7.788;2023-02-01T11:01:50;14.43;;;6.20;;
11008;SDS011;5557;51.670;7.788;2023-02-01T11:04:30;20.37;;;7.23;;
11008;SDS011;5557;51.670;7.788;2023-02-01T11:09:50;12.23;;;5.40;;
11008;SDS011;5557;51.670;7.788;2023-02-01T11:12:36;20.33;;;6.60;;
11008;SDS011;5557;51.670;7.788;2023-02-01T11:18:19;22.60;;;6.80;;
11008;SDS011;5557;51.670;7.788;2023-02-01T11:20:51;11.80;;;5.60;;
11008;SDS011;5557;51.670;7.788;2023-02-01T11:23:19;19.30;;;6.20;;
11008;SDS011;5557;51.670;7.788;2023-02-01T11:25:49;22.60;;;6.57;;
11008;SDS011;5557;51.670;7.788;2023-02-01T11:28:20;17.03;;;5.80;;
11008;SDS011;5557;51.670;7.788;2023-02-01T11:30:51;28.43;;;9.53;;
11008;SDS011;5557;51.670;7.788;2023-02-01T11:33:26;15.83;;;5.77;;
11008;SDS011;5557;51.670;7.788;2023-02-01T11:36:35;21.70;;;6.00;;
11008;SDS011;5557;51.670;7.788;2023-02-01T11:42:13;20.03;;;5.80;;
11008;SDS011;5557;51.670;7.788;2023-02-01T11:44:43;17.03;;;5.00;;
11008;SDS011;5557;51.670;7.788;2023-02-01T11:47:25;20.57;;;5.50;;
11008;SDS011;5557;51.670;7.788;2023-02-01T11:50:03;25.77;;;6.90;;
11008;SDS011;5557;51.670;7.788;2023-02-01T11:55:50;24.13;;;5.97;;
11008;SDS011;5557;51.670;7.788;2023-02-01T12:04:48;21.23;;;7.17;;
11008;SDS011;5557;51.670;7.788;2023-02-01T12:14:31;18.03;;;5.30;;
11008;SDS011;5557;51.670;7.788;2023-02-01T12:17:39;16.63;;;5.80;;
11008;SDS011;5557;51.670;7.788;2023-02-01T12:22:28;13.00;;;5.40;;
11008;SDS011;5557;51.670;7.788;2023-02-01T12:30:28;11.50;;;5.93;;
11008;SDS011;5557;51.670;7.788;2023-02-01T12:32:54;15.63;;;6.67;;
11008;SDS011;5557;51.670;7.788;2023-02-01T12:38:20;18.70;;;7.77;;
11008;SDS011;5557;51.670;7.788;2023-02-01T12:41:24;13.37;;;6.50;;
11008;SDS011;5557;51.670;7.788;2023-02-01T12:44:00;18.60;;;7.67;;
11008;SDS011;5557;51.670;7.788;2023-02-01T12:46:40;13.00;;;6.90;;
11008;SDS011;5557;51.670;7.788;2023-02-01T12:49:18;20.07;;;7.13;;
11008;SDS011;5557;51.670;7.788;2023-02-01T12:51:46;16.63;;;6.90;;
11008;SDS011;5557;51.670;7.788;2023-02-01T12:54:24;13.90;;;6.03;;
11008;SDS011;5557;51.670;7.788;2023-02-01T12:57:12;14.50;;;6.87;;
11008;SDS011;5557;51.670;7.788;2023-02-01T12:59:44;20.90;;;6.83;;
11008;SDS011;5557;51.670;7.788;2023-02-01T13:02:39;19.17;;;6.20;;
11008;SDS011;5557;51.670;7.788;2023-02-01T13:05:58;18.10;;;6.50;;
11008;SDS011;5557;51.670;7.788;2023-02-01T13:09:03;21.33;;;5.50;;
11008;SDS011;5557;51.670;7.788;2023-02-01T13:11:34;22.07;;;7.70;;
11008;SDS011;5557;51.670;7.788;2023-02-01T13:17:23;14.50;;;4.90;;
11008;SDS011;5557;51.670;7.788;2023-02-01T13:19:56;18.30;;;6.87;;
11008;SDS011;5557;51.670;7.788;2023-02-01T13:22:50;21.00;;;5.27;;
11008;SDS011;5557;51.670;7.788;2023-02-01T13:25:26;13.10;;;5.47;;
11008;SDS011;5557;51.670;7.788;2023-02-01T13:28:04;20.17;;;5.70;;
11008;SDS011;5557;51.670;7.788;2023-02-01T13:36:33;18.93;;;5.20;;
11008;SDS011;5557;51.670;7.788;2023-02-01T13:42:19;28.40;;;5.83;;
11008;SDS011;5557;51.670;7.788;2023-02-01T13:44:50;17.43;;;4.70;;
11008;SDS011;5557;51.670;7.788;2023-02-01T13:47:25;15.80;;;4.47;;
11008;SDS011;5557;51.670;7.788;2023-02-01T13:53:02;7.33;;;3.30;;
11008;SDS011;5557;51.670;7.788;2023-02-01T13:56:12;13.77;;;4.07;;
11008;SDS011;5557;51.670;7.788;2023-02-01T13:58:45;17.83;;;4.53;;
11008;SDS011;5557;51.670;7.788;2023-02-01T14:04:44;16.07;;;4.43;;
11008;SDS011;5557;51.670;7.788;2023-02-01T14:07:22;6.93;;;3.27;;
11008;SDS011;5557;51.670;7.788;2023-02-01T14:09:49;9.10;;;4.10;;
11008;SDS011;5557;51.670;7.788;2023-02-01T14:15:27;12.43;;;3.63;;
11008;SDS011;5557;51.670;7.788;2023-02-01T14:17:55;14.17;;;4.50;;
11008;SDS011;5557;51.670;7.788;2023-02-01T14:23:54;15.23;;;4.90;;
11008;SDS011;5557;51.670;7.788;2023-02-01T14:26:49;17.27;;;3.90;;
11008;SDS011;5557;51.670;7.788;2023-02-01T14:29:22;17.40;;;3.63;;
11008;SDS011;5557;51.670;7.788;2023-02-01T14:32:04;25.30;;;3.70;;
11008;SDS011;5557;51.670;7.788;2023-02-01T14:34:51;17.60;;;3.70;;
11008;SDS011;5557;51.670;7.788;2023-02-01T14:39:55;16.97;;;6.10;;
11008;SDS011;5557;51.670;7.788;2023-02-01T14:42:38;13.50;;;4.03;;
11008;SDS011;5557;51.670;7.788;2023-02-01T14:50:40;15.23;;;4.20;;
11008;SDS011;5557;51.670;7.788;2023-02-01T14:58:40;11.83;;;4.00;;
11008;SDS011;5557;51.670;7.788;2023-02-01T15:01:22;11.93;;;4.43;;
11008;SDS011;5557;51.670;7.788;2023-02-01T15:04:10;13.17;;;4.50;;
11008;SDS011;5557;51.670;7.788;2023-02-01T15:09:20;14.70;;;4.70;;
11008;SDS011;5557;51.670;7.788;2023-02-01T15:18:02;14.13;;;4.77;;
11008;SDS011;5557;51.670;7.788;2023-02-01T15:20:30;8.40;;;3.60;;
11008;SDS011;5557;51.670;7.788;2023-02-01T15:23:05;9.70;;;3.40;;
11008;SDS011;5557;51.670;7.788;2023-02-01T15:25:44;20.07;;;4.30;;
11008;SDS011;5557;51.670;7.788;2023-02-01T15:28:13;13.97;;;3.47;;
11008;SDS011;5557;51.670;7.788;2023-02-01T15:30:51;12.43;;;4.10;;
11008;SDS011;5557;51.670;7.788;2023-02-01T15:33:24;12.93;;;3.70;;
11008;SDS011;5557;51.670;7.788;2023-02-01T15:35:55;12.90;;;3.60;;
11008;SDS011;5557;51.670;7.788;2023-02-01T15:38:39;15.60;;;3.33;;
11008;SDS011;5557;51.670;7.788;2023-02-01T15:41:15;10.23;;;3.57;;
11008;SDS011;5557;51.670;7.788;2023-02-01T15:44:04;13.77;;;4.57;;
11008;SDS011;5557;51.670;7.788;2023-02-01T15:46:45;16.20;;;3.97;;
11008;SDS011;5557;51.670;7.788;2023-02-01T15:49:36;10.90;;;3.83;;
11008;SDS011;5557;51.670;7.788;2023-02-01T15:52:12;18.70;;;3.80;;
11008;SDS011;5557;51.670;7.788;2023-02-01T15:55:04;15.37;;;4.23;;
11008;SDS011;5557;51.670;7.788;2023-02-01T15:57:35;27.63;;;4.50;;
11008;SDS011;5557;51.670;7.788;2023-02-01T16:00:07;27.13;;;4.47;;
11008;SDS011;5557;51.670;7.788;2023-02-01T16:03:00;12.67;;;3.40;;
11008;SDS011;5557;51.670;7.788;2023-02-01T16:05:33;8.90;;;3.70;;
11008;SDS011;5557;51.670;7.788;2023-02-01T16:08:16;20.23;;;5.60;;
11008;SDS011;5557;51.670;7.788;2023-02-01T16:10:49;7.07;;;3.47;;
11008;SDS011;5557;51.670;7.788;2023-02-01T16:13:19;20.67;;;3.40;;
11008;SDS011;5557;51.670;7.788;2023-02-01T16:15:47;8.87;;;3.67;;
11008;SDS011;5557;51.670;7.788;2023-02-01T16:18:14;14.70;;;3.13;;
11008;SDS011;5557;51.670;7.788;2023-02-01T16:20:44;15.73;;;4.80;;
11008;SDS011;5557;51.670;7.788;2023-02-01T16:23:13;26.13;;;4.37;;
11008;SDS011;5557;51.670;7.788;2023-02-01T16:25:41;18.20;;;5.37;;
11008;SDS011;5557;51.670;7.788;2023-02-01T16:28:08;14.10;;;3.57;;
11008;SDS011;5557;51.670;7.788;2023-02-01T16:30:35;16.50;;;4.33;;
11008;SDS011;5557;51.670;7.788;2023-02-01T16:33:03;13.17;;;3.70;;
11008;SDS011;5557;51.670;7.788;2023-02-01T16:35:34;23.93;;;6.50;;
11008;SDS011;5557;51.670;7.788;2023-02-01T16:38:03;20.23;;;4.87;;
11008;SDS011;5557;51.670;7.788;2023-02-01T16:40:35;15.10;;;4.90;;
11008;SDS011;5557;51.670;7.788;2023-02-01T16:43:02;11.20;;;4.90;;
11008;SDS011;5557;51.670;7.788;2023-02-01T16:45:35;19.40;;;5.30;;
11008;SDS011;5557;51.670;7.788;2023-02-01T16:48:02;18.20;;;5.77;;
11008;SDS011;5557;51.670;7.788;2023-02-01T16:50:31;21.03;;;5.10;;
11008;SDS011;5557;51.670;7.788;2023-02-01T16:52:59;10.70;;;3.93;;
11008;SDS011;5557;51.670;7.788;2023-02-01T16:55:27;9.10;;;4.40;;
11008;SDS011;5557;51.670;7.788;2023-02-01T16:57:55;16.90;;;4.70;;
11008;SDS011;5557;51.670;7.788;2023-02-01T17:00:22;8.13;;;4.30;;
11008;SDS011;5557;51.670;7.788;2023-02-01T17:02:52;13.80;;;3.60;;
11008;SDS011;5557;51.670;7.788;2023-02-01T17:05:19;13.53;;;4.70;;
11008;SDS011;5557;51.670;7.788;2023-02-01T17:07:47;6.00;;;2.33;;
11008;SDS011;5557;51.670;7.788;2023-02-01T17:10:20;7.50;;;3.53;;
11008;SDS011;5557;51.670;7.788;2023-02-01T17:12:59;11.30;;;2.47;;
11008;SDS011;5557;51.670;7.788;2023-02-01T17:15:27;4.60;;;2.17;;
11008;SDS011;5557;51.670;7.788;2023-02-01T17:18:00;5.00;;;2.33;;
11008;SDS011;5557;51.670;7.788;2023-02-01T17:20:29;3.33;;;1.70;;
11008;SDS011;5557;51.670;7.788;2023-02-01T17:22:58;4.53;;;1.90;;
11008;SDS011;5557;51.670;7.788;2023-02-01T17:25:26;3.10;;;2.00;;